AirNav   Everest Fuels
 
 1325 users online  

8FA7 Viera Hospital Heliport
Melbourne, Florida, USA

GOING TO MELBOURNE?


FAA INFORMATION EFFECTIVE 16 JULY 2020

Location

FAA Identifier: 8FA7
Lat/Long: 28-13-36.4000N 080-43-51.5000W
28-13.606667N 080-43.858333W
28.2267778,-80.7309722
(estimated)
Elevation: 29 ft. / 9 m (estimated)
From city: 3 miles W of MELBOURNE, FL
Time zone: UTC -4 (UTC -5 during Standard Time)
Zip code: 32940

Heliport Operations

Heliport use: Private use. Permission required prior to landing
Activation date: 03/2011
Control tower: no
ARTCC: JACKSONVILLE CENTER
FSS: SAINT PETERSBURG FLIGHT SERVICE STATION
Attendance: UNATNDD
Wind indicator: lighted
Segmented circle: no
Lights: ACTVT PERI H1 - 122.825.
Beacon: white-green-yellow (heliport)
ACTVT BCN - 122.825.

Heliport Communications

WX AWOS-3 at COI (7 nm N): 119.025 (321-986-8864)
WX ASOS at MLB (9 nm SE): PHONE 321-951-7575
WX AWOS-3PT at TIX (18 nm N): 120.625 (321-567-6090)
WX AWOS-3 at X59 (18 nm SE): 122.725

Nearby radio navigation aids

VOR radial/distance  VOR name  Freq  Var
MLBr332/8.9MELBOURNE VOR/DME110.0007W
TRVr346/35.3TREASURE VORTAC117.3007W
ORLr121/37.1ORLANDO VORTAC112.2000E

Heliport Services

Runway Information

Helipad H1

Dimensions: 44 x 44 ft. / 13 x 13 m
Surface: concrete, in good condition
Runway edge lights: PERI
Latitude: 28-13.606667N
Longitude: 080-43.858333W
Elevation: 29.0 ft.
Traffic pattern: leftleft
Markings: basic, in good condition

Heliport Ownership and Management from official FAA records

Ownership: Privately-owned
Owner: HEALTH FIRST INC/ VIERA HOSPITAL
8745 NORTH WICKHAM ROAD
MELBOURNE, FL 32940
Phone 321-434-9165
Manager: TRACIE DEAKINS
8745 NORTH WICKHAM ROAD
MELBOURNE, FL 32940
Phone 321-434-9165
ADDNL CTC: FIRST FLT MGR - DAVID RODRIGUEZ-WELLS 321-751-0431; DAVID.RODRIGUEZ-WELLS@HF.ORG

Additional Remarks

FOR CD CTC ORLANDO APCH AT 407-852-7553.

Instrument Procedures

There are no published instrument procedures at 8FA7.

Some nearby airports with instrument procedures:

KCOF - Patrick Air Force Base (6 nm E)
KCOI - Merritt Island Airport (7 nm N)
KMLB - Melbourne International Airport (9 nm SE)
KXMR - Cape Canaveral Air Force Station Skid Strip (17 nm NE)
KTIX - Space Coast Regional Airport (18 nm N)
 
Loc | Ops | Rwys | IFR | FBO | Links
Com | Nav | Svcs | Stats | Notes


 
Aerial photo
No photo
 
Sectional chart

 
Airport distance calculator
Flying to Viera Hospital Heliport? Find the distance to fly.

From to 8FA7

Sunrise and sunset
Times for 07-Aug-2020
 Local
(UTC-4)
 Zulu
(UTC)
Morning civil twilight06:2510:25
Sunrise06:5010:50
Sunset20:0700:07
Evening civil twilight20:3200:32

Current date and time
Zulu (UTC)  07-Aug-2020 14:56:13
Local (UTC-4)  07-Aug-2020 10:56:13
 
METAR
KCOF 
8nm E 
071356Z AUTO 00000KT 10SM CLR 30/23 A3009 RMK AO2 SLP194 T02970229 $
KMLB 
9nm SE 
071353Z 00000KT 10SM CLR 29/25 A3009 RMK AO2 SLP188 T02890250 $
KTIX 
18nm N 
071348Z 00000KT 7SM CLR 31/26 A3010
KXMR 
18nm NE 
071356Z AUTO 29004KT 10SM CLR 30/25 A3008 RMK AO2 SLP189 T02980246 $
TAF
KCOF 
8nm E 
071000Z 0710/0816 16004KT 9999 FEW030 SCT180 QNH3000INS BECMG 0717/0718 10010KT 9999 VCSH SCT030 BKN180 QNH2998INS TEMPO 0719/0723 17012G18KT 8000 -TSRA BKN020CB BECMG 0723/0724 18008KT 9999 NSW FEW030 SCT250 QNH3004INS TX31/0718Z TN25/0710Z
KMLB 
9nm SE 
071143Z 0712/0812 VRB03KT P6SM FEW030 SCT180 FM071400 31004KT P6SM SCT025 SCT250 FM071700 09009KT P6SM SCT030 SCT250 FM080100 15003KT P6SM SCT250
KTIX 
18nm N 
071143Z 0712/0812 VRB03KT P6SM FEW030 SCT180 FM071400 24005KT P6SM SCT035 SCT250 FM071700 10007KT P6SM SCT030 BKN250 FM080100 16003KT P6SM BKN250
NOTAMs
Click for the latest NOTAMs
NOTAMs are issued by the DoD/FAA and will open in a separate window not controlled by AirNav.

 

 
 

Would you like to see your business listed on this page?

 If your business provides an interesting product or service to pilots, flight crews, aircraft, or users of the Viera Hospital Heliport, you should consider listing it here.  To start the listing process, click on the button below
 
Add a business
 

Other Pages about Viera Hospital Heliport

Update a link
 
Copyright © AirNav, LLC. All rights reserved. Privacy Policy  Contact